Time;durP1;ratioP1;P1;durP2;ratioP2;P2;SDS_P1;SDS_P2;PMS_P1;PMS_P2;Temp;Humidity;BMP_temperature;BMP_pressure;BME280_temperature;BME280_humidity;BME280_pressure;Samples;Min_cycle;Max_cycle;Signal;HPM_P1;HPM_P2
2023/08/01 05:38:22;;;;;;;;;;;;;;;;;;;;;
2023/08/01 06:39:42;;;;;;;;;;;;;;;;;;;;;
2023/08/01 07:06:00;;;;;;;10.38;4.65;;;;;;;;;;4836592;28;20047;-94
2023/08/01 07:08:37;;;;;;;15.10;4.07;;;;;;;;;;4815315;29;20617;-93
2023/08/01 07:11:11;;;;;;;13.20;4.47;;;;;;;;;;4904046;28;20060;-94
2023/08/01 07:13:37;;;;;;;17.42;4.35;;;;;;;;;;4980530;28;20072;-94
2023/08/01 07:16:08;;;;;;;10.82;3.45;;;;;;;;;;4985126;28;20048;-92
2023/08/01 07:22:21;;;;;;;9.48;4.00;;;;;;;;;;4968174;28;20087;-92
2023/08/01 07:24:59;;;;;;;14.23;4.15;;;;;;;;;;4960902;28;20041;-94
2023/08/01 07:30:44;;;;;;;13.10;3.70;;;;;;;;;;4977793;28;20041;-92
2023/08/01 07:36:51;;;;;;;11.57;4.07;;;;;;;;;;4900299;28;20063;-93
2023/08/01 07:53:47;;;;;;;10.35;3.90;;;;;;;;;;4923749;28;20518;-93
2023/08/01 08:00:25;;;;;;;10.45;3.55;;;;;;;;;;4838895;29;20097;-96
2023/08/01 08:30:10;;;;;;;8.73;3.22;;;;;;;;;;5043939;28;20094;-68
2023/08/01 08:32:36;;;;;;;10.18;3.47;;;;;;;;;;5046404;28;20413;-68
2023/08/01 08:35:02;;;;;;;8.32;2.97;;;;;;;;;;5029162;28;20112;-68
2023/08/01 08:37:27;;;;;;;7.03;3.08;;;;;;;;;;5046081;28;20041;-69
2023/08/01 08:39:52;;;;;;;7.20;2.97;;;;;;;;;;5029237;28;20110;-69
2023/08/01 08:42:19;;;;;;;11.65;3.65;;;;;;;;;;5046573;28;20688;-69
2023/08/01 08:44:48;;;;;;;8.60;2.83;;;;;;;;;;5042411;28;20098;-69
2023/08/01 08:47:17;;;;;;;11.13;3.55;;;;;;;;;;5026613;28;20091;-69
2023/08/01 08:49:43;;;;;;;8.43;3.40;;;;;;;;;;5026784;28;20037;-69
2023/08/01 08:52:09;;;;;;;7.90;2.45;;;;;;;;;;5026343;28;20042;-69
2023/08/01 08:54:35;;;;;;;5.55;2.30;;;;;;;;;;5044207;28;20047;-69
2023/08/01 08:57:01;;;;;;;6.32;2.58;;;;;;;;;;5046241;28;20094;-68
2023/08/01 08:59:29;;;;;;;6.85;2.47;;;;;;;;;;5046171;28;20052;-68
2023/08/01 09:01:54;;;;;;;5.18;2.58;;;;;;;;;;5046241;28;20036;-68
2023/08/01 09:04:19;;;;;;;6.43;2.10;;;;;;;;;;5044897;28;20114;-69
2023/08/01 09:06:48;;;;;;;6.07;2.88;;;;;;;;;;5016221;28;20048;-68
2023/08/01 09:09:14;;;;;;;5.20;2.28;;;;;;;;;;5033515;28;20588;-68
2023/08/01 09:11:46;;;;;;;4.88;2.15;;;;;;;;;;5048634;28;20062;-68
2023/08/01 09:14:11;;;;;;;9.23;2.47;;;;;;;;;;5055151;28;20021;-68
2023/08/01 09:16:37;;;;;;;8.88;2.58;;;;;;;;;;5039923;28;20060;-68
2023/08/01 09:19:03;;;;;;;6.30;2.60;;;;;;;;;;5042566;28;20041;-69
2023/08/01 09:21:35;;;;;;;6.28;2.20;;;;;;;;;;5036008;28;20037;-69
2023/08/01 09:24:15;;;;;;;7.40;2.60;;;;;;;;;;5016825;28;20048;-68
2023/08/01 09:26:42;;;;;;;7.78;3.00;;;;;;;;;;5042121;28;20459;-69
2023/08/01 09:29:08;;;;;;;7.15;2.53;;;;;;;;;;5048789;28;20469;-69
2023/08/01 09:31:35;;;;;;;7.43;2.92;;;;;;;;;;5043291;28;20056;-69
2023/08/01 09:34:03;;;;;;;7.20;3.50;;;;;;;;;;5043037;28;20044;-70
2023/08/01 09:36:29;;;;;;;7.97;3.13;;;;;;;;;;5042939;28;20036;-70
2023/08/01 09:39:00;;;;;;;5.07;2.40;;;;;;;;;;5043123;28;20144;-69
2023/08/01 09:41:26;;;;;;;5.05;2.47;;;;;;;;;;5042940;28;20051;-70
2023/08/01 09:43:52;;;;;;;10.43;2.95;;;;;;;;;;5042259;28;20025;-70
2023/08/01 09:46:17;;;;;;;6.38;2.55;;;;;;;;;;5041035;28;20123;-70
2023/08/01 09:48:43;;;;;;;4.18;2.13;;;;;;;;;;5042607;28;20064;-71
2023/08/01 09:51:17;;;;;;;7.97;2.25;;;;;;;;;;5042937;28;20433;-70
2023/08/01 09:53:56;;;;;;;4.22;2.28;;;;;;;;;;5028846;28;20037;-70
2023/08/01 09:56:23;;;;;;;6.78;2.20;;;;;;;;;;5019310;28;20074;-69
2023/08/01 09:58:50;;;;;;;7.25;2.30;;;;;;;;;;5043416;28;20056;-70
2023/08/01 10:01:17;;;;;;;7.85;2.55;;;;;;;;;;5035610;28;20037;-70
2023/08/01 10:03:48;;;;;;;4.63;2.00;;;;;;;;;;5024587;28;20673;-70
2023/08/01 10:06:18;;;;;;;6.22;2.65;;;;;;;;;;5038259;28;20517;-70
2023/08/01 10:08:45;;;;;;;6.40;2.78;;;;;;;;;;5042062;28;20033;-70
2023/08/01 10:11:14;;;;;;;8.57;2.15;;;;;;;;;;5042955;28;20534;-70
2023/08/01 10:13:43;;;;;;;8.73;2.42;;;;;;;;;;5039971;28;20041;-70
2023/08/01 10:16:09;;;;;;;7.43;2.40;;;;;;;;;;5039856;28;20049;-70
2023/08/01 10:18:37;;;;;;;6.53;2.30;;;;;;;;;;5038954;28;20049;-70
2023/08/01 10:21:04;;;;;;;4.63;2.03;;;;;;;;;;5038360;28;20045;-70
2023/08/01 10:23:30;;;;;;;8.70;2.42;;;;;;;;;;5044989;28;20028;-70
2023/08/01 10:25:56;;;;;;;4.53;2.03;;;;;;;;;;5043721;28;20033;-70
2023/08/01 10:28:32;;;;;;;6.97;2.42;;;;;;;;;;5048354;28;20052;-70
2023/08/01 10:31:13;;;;;;;10.40;2.88;;;;;;;;;;5064124;28;20056;-70
2023/08/01 10:33:41;;;;;;;5.22;1.65;;;;;;;;;;5067658;28;20968;-70
2023/08/01 10:36:20;;;;;;;6.25;1.98;;;;;;;;;;5070515;28;20032;-70
2023/08/01 10:38:57;;;;;;;5.22;2.13;;;;;;;;;;5078549;28;20044;-70
2023/08/01 10:41:35;;;;;;;6.20;1.70;;;;;;;;;;5070163;28;20025;-70
2023/08/01 10:44:13;;;;;;;6.05;1.98;;;;;;;;;;5054123;28;20040;-70
2023/08/01 10:46:56;;;;;;;5.82;2.03;;;;;;;;;;5066186;28;20067;-71
2023/08/01 10:49:38;;;;;;;6.53;2.00;;;;;;;;;;5066607;28;20036;-70
2023/08/01 10:52:16;;;;;;;5.15;1.70;;;;;;;;;;5066550;28;20036;-70
2023/08/01 10:54:42;;;;;;;7.72;2.13;;;;;;;;;;5066610;28;20060;-70
2023/08/01 10:57:08;;;;;;;4.20;1.70;;;;;;;;;;5067060;28;20114;-70
2023/08/01 10:59:34;;;;;;;7.15;2.55;;;;;;;;;;5066365;28;20067;-70
2023/08/01 11:02:01;;;;;;;6.68;1.77;;;;;;;;;;5067352;28;20063;-71
2023/08/01 11:04:27;;;;;;;4.72;1.70;;;;;;;;;;5066222;28;20094;-70
2023/08/01 11:06:56;;;;;;;3.58;1.80;;;;;;;;;;5066669;28;20037;-70
2023/08/01 11:09:26;;;;;;;6.78;2.70;;;;;;;;;;5064741;28;20036;-70
2023/08/01 11:12:00;;;;;;;6.32;2.47;;;;;;;;;;5066636;28;20033;-70
2023/08/01 11:14:27;;;;;;;5.30;2.30;;;;;;;;;;5066131;28;20123;-71
2023/08/01 11:16:56;;;;;;;6.72;2.17;;;;;;;;;;5066239;28;20161;-71
2023/08/01 11:19:27;;;;;;;3.45;2.00;;;;;;;;;;5057604;28;20045;-70
2023/08/01 11:21:54;;;;;;;6.20;2.00;;;;;;;;;;5045699;28;20037;-70
2023/08/01 11:24:20;;;;;;;9.00;1.90;;;;;;;;;;5046587;28;20055;-70
2023/08/01 11:26:47;;;;;;;5.75;2.22;;;;;;;;;;5044919;28;20128;-70
2023/08/01 11:29:13;;;;;;;4.38;1.63;;;;;;;;;;5045902;28;20075;-70
2023/08/01 11:31:41;;;;;;;3.65;1.90;;;;;;;;;;5045622;28;20048;-70
2023/08/01 11:34:08;;;;;;;5.40;1.70;;;;;;;;;;5045026;28;20857;-70
2023/08/01 11:36:33;;;;;;;4.97;2.20;;;;;;;;;;5045311;28;20033;-70
2023/08/01 11:39:00;;;;;;;5.32;1.70;;;;;;;;;;5046512;28;20024;-70
2023/08/01 11:41:30;;;;;;;6.05;2.10;;;;;;;;;;5045220;28;20044;-69
2023/08/01 11:43:55;;;;;;;3.67;1.65;;;;;;;;;;5043395;28;20041;-70
2023/08/01 11:46:22;;;;;;;4.00;1.75;;;;;;;;;;5044765;28;20040;-69
2023/08/01 11:48:50;;;;;;;4.25;1.67;;;;;;;;;;5043728;28;20506;-69
2023/08/01 11:51:15;;;;;;;5.78;2.22;;;;;;;;;;5044807;28;20035;-71
2023/08/01 11:53:41;;;;;;;3.40;1.67;;;;;;;;;;5056124;28;20420;-70
2023/08/01 11:56:06;;;;;;;4.78;1.73;;;;;;;;;;5080632;28;20074;-69
2023/08/01 11:58:37;;;;;;;3.80;1.73;;;;;;;;;;5067558;28;20056;-69
2023/08/01 12:01:08;;;;;;;3.35;1.70;;;;;;;;;;5072372;28;20042;-70
2023/08/01 12:03:53;;;;;;;4.30;2.05;;;;;;;;;;5071725;28;20078;-70
2023/08/01 12:06:22;;;;;;;6.00;1.80;;;;;;;;;;5065981;28;20447;-70
2023/08/01 12:08:49;;;;;;;5.40;1.83;;;;;;;;;;5065954;28;20020;-70
2023/08/01 12:11:25;;;;;;;4.30;2.10;;;;;;;;;;5064841;28;20294;-70
2023/08/01 12:14:11;;;;;;;5.53;1.77;;;;;;;;;;5065851;28;20037;-70
2023/08/01 12:16:44;;;;;;;4.82;1.63;;;;;;;;;;5065778;28;20536;-69
2023/08/01 12:19:10;;;;;;;7.57;1.80;;;;;;;;;;5065537;28;20044;-69
2023/08/01 12:21:36;;;;;;;5.68;1.60;;;;;;;;;;5063861;28;20033;-69
2023/08/01 12:24:01;;;;;;;4.28;1.90;;;;;;;;;;5065511;28;20032;-69
2023/08/01 12:26:27;;;;;;;6.32;1.40;;;;;;;;;;5063536;28;20064;-69
2023/08/01 12:28:52;;;;;;;3.63;1.40;;;;;;;;;;5062999;28;20044;-69
2023/08/01 12:31:19;;;;;;;6.05;1.50;;;;;;;;;;5065362;28;20043;-69
2023/08/01 12:33:45;;;;;;;4.63;2.15;;;;;;;;;;5063847;28;20051;-70
2023/08/01 12:36:11;;;;;;;4.18;1.70;;;;;;;;;;5063646;28;20062;-69
2023/08/01 12:38:37;;;;;;;4.03;1.17;;;;;;;;;;5065084;28;20032;-70
2023/08/01 12:41:02;;;;;;;4.40;1.70;;;;;;;;;;5064612;28;20119;-70
2023/08/01 12:43:27;;;;;;;4.97;1.63;;;;;;;;;;5064008;28;20044;-70
2023/08/01 12:45:53;;;;;;;3.45;1.40;;;;;;;;;;5033307;28;20131;-69
2023/08/01 12:48:19;;;;;;;10.23;1.67;;;;;;;;;;5025833;28;20028;-69
2023/08/01 12:50:48;;;;;;;5.00;1.40;;;;;;;;;;5037778;28;20059;-69
2023/08/01 12:53:14;;;;;;;5.50;1.60;;;;;;;;;;5048842;28;20032;-70
2023/08/01 12:55:46;;;;;;;5.55;1.42;;;;;;;;;;5064693;28;20523;-70
2023/08/01 12:58:12;;;;;;;9.38;2.05;;;;;;;;;;5064721;28;20031;-70
2023/08/01 13:00:40;;;;;;;5.38;1.42;;;;;;;;;;5064567;28;20028;-70
2023/08/01 13:03:06;;;;;;;4.63;1.80;;;;;;;;;;5065431;28;20516;-69
2023/08/01 13:05:38;;;;;;;8.63;2.10;;;;;;;;;;5062311;28;20084;-70
2023/08/01 13:08:04;;;;;;;3.53;1.70;;;;;;;;;;5062466;28;20039;-70
2023/08/01 13:10:34;;;;;;;3.95;2.10;;;;;;;;;;5063614;28;20036;-69
2023/08/01 13:12:59;;;;;;;4.30;1.88;;;;;;;;;;5064096;28;20615;-69
2023/08/01 13:15:25;;;;;;;5.72;2.28;;;;;;;;;;5064443;28;20074;-68
2023/08/01 13:17:51;;;;;;;6.43;1.75;;;;;;;;;;5065505;28;20025;-69
2023/08/01 13:20:17;;;;;;;6.03;1.80;;;;;;;;;;5063969;28;20033;-69
2023/08/01 13:22:43;;;;;;;5.55;1.90;;;;;;;;;;5064928;28;20056;-68
2023/08/01 13:25:09;;;;;;;6.18;1.90;;;;;;;;;;5067036;28;20025;-68
2023/08/01 13:27:35;;;;;;;5.75;1.95;;;;;;;;;;5051228;28;20064;-68
2023/08/01 13:30:02;;;;;;;7.63;1.95;;;;;;;;;;5065841;28;20544;-68
2023/08/01 13:32:27;;;;;;;9.82;2.47;;;;;;;;;;5064917;28;20036;-70
2023/08/01 13:34:52;;;;;;;9.48;1.88;;;;;;;;;;5079915;28;20179;-70
2023/08/01 13:37:18;;;;;;;4.63;1.70;;;;;;;;;;5062409;28;20040;-69
2023/08/01 13:39:45;;;;;;;2.72;1.55;;;;;;;;;;5063545;28;20086;-69
2023/08/01 13:42:11;;;;;;;3.30;1.52;;;;;;;;;;5063367;28;20052;-72
2023/08/01 13:44:36;;;;;;;8.40;2.05;;;;;;;;;;5064564;28;20059;-69
2023/08/01 13:47:03;;;;;;;6.05;1.88;;;;;;;;;;5040018;28;20577;-69
2023/08/01 13:49:29;;;;;;;4.43;1.40;;;;;;;;;;5043565;28;20103;-69
2023/08/01 13:51:54;;;;;;;3.58;1.60;;;;;;;;;;5030890;28;20049;-68
2023/08/01 13:54:19;;;;;;;10.50;2.05;;;;;;;;;;5049345;28;20442;-69
2023/08/01 13:56:45;;;;;;;5.57;1.80;;;;;;;;;;5061907;28;20576;-69
2023/08/01 13:59:10;;;;;;;4.43;1.75;;;;;;;;;;5062742;28;20125;-69
2023/08/01 14:01:37;;;;;;;6.63;1.85;;;;;;;;;;5063325;28;20041;-69
2023/08/01 14:04:03;;;;;;;3.92;1.50;;;;;;;;;;5041806;28;20529;-70
2023/08/01 14:06:29;;;;;;;4.15;1.58;;;;;;;;;;5042852;28;22269;-69
2023/08/01 14:08:54;;;;;;;4.70;1.48;;;;;;;;;;5043798;28;20051;-70
2023/08/01 14:11:19;;;;;;;3.17;1.30;;;;;;;;;;5040922;28;20128;-70
2023/08/01 14:13:45;;;;;;;4.57;1.50;;;;;;;;;;5042958;28;20076;-70
2023/08/01 14:16:10;;;;;;;8.73;1.58;;;;;;;;;;5042184;28;20044;-70
2023/08/01 14:18:36;;;;;;;3.80;1.30;;;;;;;;;;5042698;28;20144;-70
2023/08/01 14:21:01;;;;;;;1.98;1.30;;;;;;;;;;5030341;28;20038;-70
2023/08/01 14:23:27;;;;;;;5.63;1.75;;;;;;;;;;5026659;28;20098;-69
2023/08/01 14:25:52;;;;;;;2.47;1.17;;;;;;;;;;5034353;28;20037;-70
2023/08/01 14:28:18;;;;;;;3.22;1.40;;;;;;;;;;5035935;28;20533;-70
2023/08/01 14:30:43;;;;;;;4.32;1.70;;;;;;;;;;5022126;28;20060;-70
2023/08/01 14:33:09;;;;;;;4.22;1.13;;;;;;;;;;5023453;28;20025;-70
2023/08/01 14:35:35;;;;;;;4.15;1.50;;;;;;;;;;5023552;28;20072;-70
2023/08/01 14:38:02;;;;;;;3.45;1.17;;;;;;;;;;5027425;28;20109;-69
2023/08/01 14:40:28;;;;;;;6.82;1.63;;;;;;;;;;5037614;28;20521;-69
2023/08/01 14:42:53;;;;;;;5.53;1.38;;;;;;;;;;5035061;28;20087;-70
2023/08/01 14:45:18;;;;;;;6.85;1.92;;;;;;;;;;5024903;28;20408;-69
2023/08/01 14:47:44;;;;;;;5.85;1.65;;;;;;;;;;5005995;28;20029;-70
2023/08/01 14:50:11;;;;;;;3.95;1.20;;;;;;;;;;5009781;28;20049;-68
2023/08/01 14:52:36;;;;;;;4.72;1.50;;;;;;;;;;5008413;28;20050;-70
2023/08/01 14:55:02;;;;;;;3.15;1.40;;;;;;;;;;5003505;28;20042;-70
2023/08/01 14:57:27;;;;;;;6.53;2.00;;;;;;;;;;5005793;28;20103;-70
2023/08/01 14:59:53;;;;;;;4.00;1.52;;;;;;;;;;5023780;28;20396;-70
2023/08/01 15:02:19;;;;;;;4.45;1.30;;;;;;;;;;5019217;28;20034;-69
2023/08/01 15:04:45;;;;;;;6.60;1.73;;;;;;;;;;5028286;28;20045;-69
2023/08/01 15:07:10;;;;;;;4.43;1.60;;;;;;;;;;5020735;28;20505;-68
2023/08/01 15:09:35;;;;;;;6.50;1.80;;;;;;;;;;5030392;28;20044;-69
2023/08/01 15:12:01;;;;;;;3.60;1.73;;;;;;;;;;5046779;28;20029;-69
2023/08/01 15:14:26;;;;;;;7.53;1.60;;;;;;;;;;5046706;28;20033;-69
2023/08/01 15:16:52;;;;;;;4.72;1.58;;;;;;;;;;5046392;28;20049;-69
2023/08/01 15:19:17;;;;;;;6.07;1.60;;;;;;;;;;5036197;28;20073;-69
2023/08/01 15:21:45;;;;;;;5.00;1.70;;;;;;;;;;5026891;28;20030;-69
2023/08/01 15:24:10;;;;;;;8.43;1.58;;;;;;;;;;5028985;28;20490;-68
2023/08/01 15:26:35;;;;;;;3.03;1.45;;;;;;;;;;5013853;28;20056;-68
2023/08/01 15:29:01;;;;;;;5.15;1.80;;;;;;;;;;5028381;28;20115;-69
2023/08/01 15:31:26;;;;;;;5.35;1.38;;;;;;;;;;5029650;28;20045;-69
2023/08/01 15:33:52;;;;;;;3.63;1.65;;;;;;;;;;5044232;28;20041;-69
2023/08/01 15:36:17;;;;;;;2.85;1.38;;;;;;;;;;5037472;28;20140;-69
2023/08/01 15:38:43;;;;;;;7.55;1.83;;;;;;;;;;5036600;28;20102;-69
2023/08/01 15:41:08;;;;;;;7.13;1.80;;;;;;;;;;5037553;28;20063;-69
2023/08/01 15:43:38;;;;;;;2.30;1.60;;;;;;;;;;5043446;28;20044;-69
2023/08/01 15:46:05;;;;;;;5.20;2.22;;;;;;;;;;5033501;28;20049;-69
2023/08/01 15:48:34;;;;;;;6.18;2.17;;;;;;;;;;5036735;28;20045;-68
2023/08/01 15:51:03;;;;;;;5.78;1.92;;;;;;;;;;5040614;28;20078;-69
2023/08/01 15:53:28;;;;;;;4.13;1.63;;;;;;;;;;5044978;28;20040;-69
2023/08/01 15:56:01;;;;;;;7.63;2.00;;;;;;;;;;5045258;28;20040;-69
2023/08/01 15:58:28;;;;;;;6.47;2.83;;;;;;;;;;5046326;28;20514;-70
2023/08/01 16:00:54;;;;;;;5.97;1.88;;;;;;;;;;5045631;28;20037;-69
2023/08/01 16:03:19;;;;;;;5.90;2.03;;;;;;;;;;5045889;28;20032;-70
2023/08/01 16:05:45;;;;;;;6.60;2.50;;;;;;;;;;5046613;28;20397;-71
2023/08/01 16:08:13;;;;;;;5.15;1.70;;;;;;;;;;5047668;28;20421;-71
2023/08/01 16:10:39;;;;;;;9.50;2.97;;;;;;;;;;5046791;28;20040;-71
2023/08/01 16:13:05;;;;;;;8.10;1.85;;;;;;;;;;5051305;28;20057;-71
2023/08/01 16:15:30;;;;;;;4.72;2.28;;;;;;;;;;5057513;28;20059;-71
2023/08/01 16:17:56;;;;;;;7.70;2.10;;;;;;;;;;5050032;28;20087;-71
2023/08/01 16:20:21;;;;;;;4.75;1.70;;;;;;;;;;5044139;28;20033;-72
2023/08/01 16:22:46;;;;;;;5.40;2.00;;;;;;;;;;5042309;28;20394;-70
2023/08/01 16:25:12;;;;;;;5.95;1.98;;;;;;;;;;5046741;28;20083;-70
2023/08/01 16:27:37;;;;;;;6.05;1.77;;;;;;;;;;5045953;28;20158;-69
2023/08/01 16:30:03;;;;;;;7.05;2.33;;;;;;;;;;5046451;28;20041;-69
2023/08/01 16:32:28;;;;;;;5.38;1.90;;;;;;;;;;5033258;28;20041;-69
2023/08/01 16:34:54;;;;;;;4.00;1.75;;;;;;;;;;5041393;28;20131;-69
2023/08/01 16:37:21;;;;;;;6.55;2.20;;;;;;;;;;5032120;28;20542;-69
2023/08/01 16:39:47;;;;;;;6.05;1.73;;;;;;;;;;5038995;28;20063;-69
2023/08/01 16:42:12;;;;;;;6.35;1.85;;;;;;;;;;5045874;28;20033;-70
2023/08/01 16:44:37;;;;;;;5.43;1.80;;;;;;;;;;5039813;28;20482;-70
2023/08/01 16:47:03;;;;;;;5.68;1.90;;;;;;;;;;5046333;28;20055;-70
2023/08/01 16:49:28;;;;;;;3.58;1.67;;;;;;;;;;5044995;28;20045;-70
2023/08/01 16:51:54;;;;;;;5.82;1.95;;;;;;;;;;5044408;28;20056;-70
2023/08/01 16:54:19;;;;;;;5.25;1.83;;;;;;;;;;5045211;28;20478;-69
2023/08/01 16:56:44;;;;;;;7.90;1.95;;;;;;;;;;5046517;28;20017;-70
2023/08/01 16:59:10;;;;;;;5.43;1.83;;;;;;;;;;5046639;28;20037;-70
2023/08/01 17:01:35;;;;;;;7.95;2.00;;;;;;;;;;5045375;28;20061;-70
2023/08/01 17:04:01;;;;;;;5.90;1.80;;;;;;;;;;5046230;28;20055;-70
2023/08/01 17:06:26;;;;;;;5.40;2.05;;;;;;;;;;5044253;28;20021;-71
2023/08/01 17:08:51;;;;;;;3.45;1.70;;;;;;;;;;5047306;28;20047;-71
2023/08/01 17:11:17;;;;;;;6.25;1.80;;;;;;;;;;5045290;28;20029;-71
2023/08/01 17:13:42;;;;;;;3.15;1.60;;;;;;;;;;5045871;28;20033;-71
2023/08/01 17:16:07;;;;;;;4.47;2.08;;;;;;;;;;5045476;28;20098;-71
2023/08/01 17:18:33;;;;;;;8.30;1.80;;;;;;;;;;5045433;28;20537;-71
2023/08/01 17:20:59;;;;;;;4.88;2.00;;;;;;;;;;5044923;28;20387;-71
2023/08/01 17:23:25;;;;;;;2.95;1.55;;;;;;;;;;5045239;28;20537;-71
2023/08/01 17:25:50;;;;;;;6.93;1.42;;;;;;;;;;5039246;28;20033;-69
2023/08/01 17:28:15;;;;;;;3.67;1.60;;;;;;;;;;5025389;28;20136;-69
2023/08/01 17:30:41;;;;;;;3.38;1.55;;;;;;;;;;5023879;28;20030;-70
2023/08/01 17:33:06;;;;;;;5.13;1.73;;;;;;;;;;5026216;28;20133;-70
2023/08/01 17:35:31;;;;;;;4.85;1.63;;;;;;;;;;5026506;28;20037;-70
2023/08/01 17:37:57;;;;;;;5.22;2.00;;;;;;;;;;5041544;28;20152;-69
2023/08/01 17:40:22;;;;;;;5.70;1.63;;;;;;;;;;5039667;28;20534;-69
2023/08/01 17:42:51;;;;;;;3.88;1.55;;;;;;;;;;5039095;28;20454;-69
2023/08/01 17:45:17;;;;;;;2.90;1.42;;;;;;;;;;5041094;28;20036;-69
2023/08/01 17:47:42;;;;;;;5.20;1.60;;;;;;;;;;5041603;28;20025;-69
2023/08/01 17:50:08;;;;;;;4.82;1.75;;;;;;;;;;5030132;28;20037;-69
2023/08/01 17:52:34;;;;;;;6.30;1.75;;;;;;;;;;5035047;28;20036;-69
2023/08/01 17:55:00;;;;;;;5.35;1.48;;;;;;;;;;5034913;28;20056;-69
2023/08/01 17:57:25;;;;;;;3.45;1.60;;;;;;;;;;5039704;28;20029;-69
2023/08/01 17:59:50;;;;;;;3.45;1.70;;;;;;;;;;5043219;28;20036;-69
2023/08/01 18:02:16;;;;;;;6.68;1.38;;;;;;;;;;5036966;28;20052;-69
2023/08/01 18:04:43;;;;;;;5.78;1.67;;;;;;;;;;5038899;28;20087;-69
2023/08/01 18:07:09;;;;;;;5.35;1.60;;;;;;;;;;5031581;28;20753;-69
2023/08/01 18:09:35;;;;;;;3.30;1.60;;;;;;;;;;5043151;28;20033;-69
2023/08/01 18:12:00;;;;;;;4.13;1.30;;;;;;;;;;5041316;28;20040;-69
2023/08/01 18:14:25;;;;;;;5.80;1.75;;;;;;;;;;5039337;28;20238;-69
2023/08/01 18:16:51;;;;;;;4.38;1.55;;;;;;;;;;4979709;28;20034;-69
2023/08/01 18:19:16;;;;;;;3.92;1.42;;;;;;;;;;5011934;28;20114;-69
2023/08/01 18:21:42;;;;;;;4.20;1.60;;;;;;;;;;5040111;28;20088;-70
2023/08/01 18:24:07;;;;;;;5.50;1.77;;;;;;;;;;5030624;28;20030;-69
2023/08/01 18:26:34;;;;;;;3.78;1.60;;;;;;;;;;5022504;28;20111;-69
2023/08/01 18:29:00;;;;;;;4.32;1.65;;;;;;;;;;5024086;28;20045;-68
2023/08/01 18:31:25;;;;;;;2.55;1.48;;;;;;;;;;5039116;28;20037;-69
2023/08/01 18:33:51;;;;;;;3.70;1.60;;;;;;;;;;5035974;28;20043;-69
2023/08/01 18:36:23;;;;;;;3.72;1.30;;;;;;;;;;5040706;28;20037;-68
2023/08/01 18:38:49;;;;;;;4.43;1.38;;;;;;;;;;5041906;28;20029;-69
2023/08/01 18:41:14;;;;;;;2.45;1.33;;;;;;;;;;5032582;28;20438;-68
2023/08/01 18:43:40;;;;;;;3.00;1.40;;;;;;;;;;5041090;28;20044;-68
2023/08/01 18:46:06;;;;;;;4.32;1.25;;;;;;;;;;5042362;28;20048;-69
2023/08/01 18:48:32;;;;;;;4.38;1.38;;;;;;;;;;5045891;28;20025;-68
2023/08/01 18:50:57;;;;;;;2.00;1.13;;;;;;;;;;5047241;28;20017;-69
2023/08/01 18:53:23;;;;;;;3.33;1.40;;;;;;;;;;5046665;28;20056;-69
2023/08/01 18:55:48;;;;;;;5.10;1.80;;;;;;;;;;5045937;28;20028;-68
2023/08/01 18:58:14;;;;;;;4.28;2.08;;;;;;;;;;5021028;28;20045;-69
2023/08/01 19:00:39;;;;;;;3.55;1.65;;;;;;;;;;5049285;28;20037;-69
2023/08/01 19:03:05;;;;;;;6.57;1.50;;;;;;;;;;5051397;28;20021;-69
2023/08/01 19:05:35;;;;;;;4.47;1.30;;;;;;;;;;5024662;28;20041;-69
2023/08/01 19:08:00;;;;;;;2.40;1.17;;;;;;;;;;5018901;28;20048;-69
2023/08/01 19:10:26;;;;;;;3.03;1.10;;;;;;;;;;5023116;28;20033;-69
2023/08/01 19:12:51;;;;;;;1.70;1.00;;;;;;;;;;5014698;28;20030;-68
2023/08/01 19:15:17;;;;;;;2.42;1.20;;;;;;;;;;5002621;28;20036;-69
2023/08/01 19:17:42;;;;;;;1.42;0.82;;;;;;;;;;5023237;28;20025;-69
2023/08/01 19:20:08;;;;;;;2.85;1.00;;;;;;;;;;5026862;28;20041;-70
2023/08/01 19:22:34;;;;;;;1.42;0.90;;;;;;;;;;5026471;28;20029;-70
2023/08/01 19:24:59;;;;;;;1.60;0.85;;;;;;;;;;5026892;28;20034;-70
2023/08/01 19:27:26;;;;;;;1.95;0.95;;;;;;;;;;5026800;28;20029;-70
2023/08/01 19:29:52;;;;;;;3.75;1.10;;;;;;;;;;5023056;28;20842;-70
2023/08/01 19:32:18;;;;;;;2.47;1.00;;;;;;;;;;5020826;28;20041;-69
2023/08/01 19:34:50;;;;;;;1.83;0.90;;;;;;;;;;5023333;28;20446;-69
2023/08/01 19:37:16;;;;;;;2.13;1.40;;;;;;;;;;5040884;28;20048;-69
2023/08/01 19:39:41;;;;;;;2.28;0.80;;;;;;;;;;5025215;28;20041;-69
2023/08/01 19:42:07;;;;;;;3.30;1.10;;;;;;;;;;5025084;28;20025;-69
2023/08/01 19:44:33;;;;;;;3.47;1.35;;;;;;;;;;5026448;28;20155;-69
2023/08/01 19:46:58;;;;;;;2.17;1.00;;;;;;;;;;5025908;28;20034;-69
2023/08/01 19:49:24;;;;;;;2.83;1.17;;;;;;;;;;5025378;28;20116;-69
2023/08/01 19:51:50;;;;;;;2.28;1.10;;;;;;;;;;5025122;28;20033;-69
2023/08/01 19:54:15;;;;;;;2.35;1.10;;;;;;;;;;5018528;28;20052;-69
2023/08/01 19:56:41;;;;;;;1.90;1.00;;;;;;;;;;5026481;28;20033;-70
2023/08/01 19:59:06;;;;;;;2.47;1.10;;;;;;;;;;5022436;28;20045;-69
2023/08/01 20:01:32;;;;;;;2.28;1.13;;;;;;;;;;5019648;28;20048;-69
2023/08/01 20:03:57;;;;;;;3.78;1.20;;;;;;;;;;5007980;28;20390;-69
2023/08/01 20:06:23;;;;;;;2.50;1.40;;;;;;;;;;5016936;28;20041;-69
2023/08/01 20:08:48;;;;;;;3.17;1.17;;;;;;;;;;5023653;28;20057;-69
2023/08/01 20:11:14;;;;;;;4.50;1.60;;;;;;;;;;5024213;28;20300;-69
2023/08/01 20:13:39;;;;;;;2.75;1.30;;;;;;;;;;5023050;28;20079;-69
2023/08/01 20:16:05;;;;;;;2.17;1.17;;;;;;;;;;5021832;28;20045;-69
2023/08/01 20:18:31;;;;;;;2.20;1.30;;;;;;;;;;5020134;28;20100;-69
2023/08/01 20:20:57;;;;;;;2.85;1.30;;;;;;;;;;5023798;28;20113;-69
2023/08/01 20:23:23;;;;;;;1.95;1.35;;;;;;;;;;5020403;28;20038;-69
2023/08/01 20:25:50;;;;;;;3.35;1.45;;;;;;;;;;5019807;28;20056;-69
2023/08/01 20:28:17;;;;;;;2.13;1.35;;;;;;;;;;5029986;28;20041;-70
2023/08/01 20:30:43;;;;;;;3.53;1.55;;;;;;;;;;5023327;28;20029;-70
2023/08/01 20:33:08;;;;;;;3.97;1.45;;;;;;;;;;5023350;28;20029;-70
2023/08/01 20:35:34;;;;;;;1.80;1.23;;;;;;;;;;5024515;28;20151;-70
2023/08/01 20:38:02;;;;;;;2.97;1.42;;;;;;;;;;5024044;28;20037;-70
2023/08/01 20:40:32;;;;;;;4.07;1.80;;;;;;;;;;5024255;28;20049;-70
2023/08/01 20:42:59;;;;;;;3.53;1.38;;;;;;;;;;5024463;28;20033;-69
2023/08/01 20:45:24;;;;;;;5.57;2.08;;;;;;;;;;5013298;28;20059;-69
2023/08/01 20:47:50;;;;;;;3.17;1.70;;;;;;;;;;5015728;28;20037;-69
2023/08/01 20:50:15;;;;;;;3.72;1.88;;;;;;;;;;5015163;28;20970;-69
2023/08/01 20:52:41;;;;;;;5.43;1.90;;;;;;;;;;5016541;28;20041;-70
2023/08/01 20:55:06;;;;;;;3.90;2.10;;;;;;;;;;5024403;28;20049;-70
2023/08/01 20:57:32;;;;;;;5.03;2.00;;;;;;;;;;5024052;28;20033;-70
2023/08/01 20:59:57;;;;;;;5.20;1.98;;;;;;;;;;5024912;28;20083;-70
2023/08/01 21:02:23;;;;;;;3.65;1.90;;;;;;;;;;5017528;28;20980;-69
2023/08/01 21:04:48;;;;;;;5.13;2.00;;;;;;;;;;5019429;28;20045;-70
2023/08/01 21:07:13;;;;;;;6.95;2.03;;;;;;;;;;5015125;28;20037;-68
2023/08/01 21:09:39;;;;;;;3.78;1.80;;;;;;;;;;5019926;28;20041;-69
2023/08/01 21:12:05;;;;;;;2.88;1.88;;;;;;;;;;5013314;28;20030;-69
2023/08/01 21:14:30;;;;;;;4.95;2.08;;;;;;;;;;5005540;28;20530;-69
2023/08/01 21:16:55;;;;;;;4.60;2.10;;;;;;;;;;5003268;28;20068;-69
2023/08/01 21:19:21;;;;;;;7.10;2.15;;;;;;;;;;5004294;28;20046;-69
2023/08/01 21:21:46;;;;;;;7.45;2.30;;;;;;;;;;5004575;28;20037;-69
2023/08/01 21:24:11;;;;;;;4.97;1.85;;;;;;;;;;5004393;28;20461;-69
2023/08/01 21:26:37;;;;;;;6.28;2.13;;;;;;;;;;5005918;28;20121;-69
2023/08/01 21:29:03;;;;;;;4.47;1.80;;;;;;;;;;5015367;28;20044;-69
2023/08/01 21:31:28;;;;;;;3.65;2.03;;;;;;;;;;5024426;28;20087;-69
2023/08/01 21:33:54;;;;;;;5.53;2.00;;;;;;;;;;5023770;28;20534;-69
2023/08/01 21:36:19;;;;;;;5.50;1.85;;;;;;;;;;5024656;28;20513;-69
2023/08/01 21:38:45;;;;;;;3.40;1.70;;;;;;;;;;5024878;28;20036;-69
2023/08/01 21:41:15;;;;;;;4.63;1.90;;;;;;;;;;5024432;28;20604;-69
2023/08/01 21:43:40;;;;;;;4.88;1.80;;;;;;;;;;5023971;28;20083;-69
2023/08/01 21:46:06;;;;;;;5.00;2.13;;;;;;;;;;5025317;28;20033;-69
2023/08/01 21:48:32;;;;;;;3.85;2.00;;;;;;;;;;5026522;28;20059;-69
2023/08/01 21:50:57;;;;;;;5.68;1.90;;;;;;;;;;5030718;28;20037;-69
2023/08/01 21:53:23;;;;;;;6.47;2.20;;;;;;;;;;5041446;28;20101;-69
2023/08/01 21:55:48;;;;;;;3.85;1.92;;;;;;;;;;5045235;28;20037;-69
2023/08/01 21:58:15;;;;;;;5.30;2.10;;;;;;;;;;5026978;28;20049;-69
2023/08/01 22:00:41;;;;;;;7.72;2.10;;;;;;;;;;5039749;28;20037;-69
2023/08/01 22:03:07;;;;;;;3.80;2.00;;;;;;;;;;5025192;28;20055;-69
2023/08/01 22:05:32;;;;;;;2.72;1.63;;;;;;;;;;5044652;28;20041;-69
2023/08/01 22:07:57;;;;;;;5.25;1.95;;;;;;;;;;5043636;28;20033;-69
2023/08/01 22:10:26;;;;;;;7.80;2.40;;;;;;;;;;5044758;28;20060;-69
2023/08/01 22:12:53;;;;;;;5.63;2.17;;;;;;;;;;5038847;28;20038;-69
2023/08/01 22:15:18;;;;;;;5.13;2.20;;;;;;;;;;5010781;28;20036;-69
2023/08/01 22:17:44;;;;;;;8.77;2.58;;;;;;;;;;5029304;28;20029;-69
2023/08/01 22:20:10;;;;;;;4.32;2.10;;;;;;;;;;5044853;28;20580;-69
2023/08/01 22:22:35;;;;;;;5.03;2.22;;;;;;;;;;5046275;28;20054;-69
2023/08/01 22:25:01;;;;;;;7.15;1.98;;;;;;;;;;5047950;28;20437;-69
2023/08/01 22:27:26;;;;;;;6.22;2.30;;;;;;;;;;5046749;28;20055;-69
2023/08/01 22:29:52;;;;;;;5.55;2.10;;;;;;;;;;5048269;28;20045;-69
2023/08/01 22:32:17;;;;;;;4.70;2.20;;;;;;;;;;5047730;28;20033;-69
2023/08/01 22:34:42;;;;;;;5.70;2.50;;;;;;;;;;5048103;28;20449;-69
2023/08/01 22:37:08;;;;;;;6.85;2.50;;;;;;;;;;5047696;28;20121;-69